createdAt,value
2019-01-28T00:00:34.635Z,51.17
2019-01-28T00:03:03.327Z,48.23
2019-01-28T00:05:31.647Z,52.37
2019-01-28T00:08:00.347Z,52.73
2019-01-28T00:10:28.672Z,49.67
2019-01-28T00:12:57.135Z,51.10
2019-01-28T00:15:25.499Z,52.90
2019-01-28T00:17:53.907Z,54.03
2019-01-28T00:20:22.291Z,52.53
2019-01-28T00:22:50.767Z,47.53
2019-01-28T00:25:19.095Z,56.27
2019-01-28T00:27:47.510Z,50.30
2019-01-28T00:30:16.074Z,43.57
2019-01-28T00:32:44.513Z,44.47
2019-01-28T00:35:13.526Z,42.70
2019-01-28T00:37:42.107Z,49.33
2019-01-28T00:40:10.511Z,45.93
2019-01-28T00:42:38.955Z,41.80
2019-01-28T00:45:09.535Z,37.13
2019-01-28T00:47:37.944Z,39.37
2019-01-28T00:50:07.099Z,37.23
2019-01-28T00:52:35.438Z,37.27
2019-01-28T00:55:04.242Z,30.97
2019-01-28T00:57:32.848Z,27.47
2019-01-28T01:00:01.239Z,34.00
2019-01-28T01:02:29.606Z,33.57
2019-01-28T01:04:57.954Z,29.03
2019-01-28T01:07:26.366Z,24.37
2019-01-28T01:09:54.674Z,27.73
2019-01-28T01:12:23.008Z,32.53
2019-01-28T01:14:51.491Z,26.83
2019-01-28T01:17:19.795Z,26.77
2019-01-28T01:19:48.145Z,25.40
2019-01-28T01:22:16.615Z,25.67
2019-01-28T01:24:45.326Z,21.13
2019-01-28T01:27:13.684Z,24.67
2019-01-28T01:29:42.332Z,21.33
2019-01-28T01:32:10.910Z,28.10
2019-01-28T01:34:39.291Z,28.47
2019-01-28T01:37:07.632Z,19.43
2019-01-28T01:39:35.975Z,21.67
2019-01-28T01:42:04.539Z,29.53
2019-01-28T01:44:32.879Z,21.03
2019-01-28T01:47:01.286Z,25.63
2019-01-28T01:49:29.591Z,24.17
2019-01-28T01:51:57.941Z,29.10
2019-01-28T01:54:26.316Z,25.57
2019-01-28T01:56:54.611Z,27.27
2019-01-28T01:59:23.121Z,27.70
2019-01-28T02:01:51.432Z,21.87
2019-01-28T02:04:19.751Z,24.77
2019-01-28T02:06:48.100Z,24.37
2019-01-28T02:09:16.481Z,21.50
2019-01-28T02:11:44.778Z,21.60
2019-01-28T02:14:13.105Z,19.20
2019-01-28T02:16:41.444Z,20.83
2019-01-28T02:19:09.851Z,20.67
2019-01-28T02:21:38.251Z,26.43
2019-01-28T02:24:06.954Z,21.73
2019-01-28T02:26:35.798Z,20.70
2019-01-28T02:29:04.270Z,22.73
2019-01-28T02:31:32.579Z,17.93
2019-01-28T02:34:00.986Z,18.30
2019-01-28T02:36:29.529Z,17.47
2019-01-28T02:38:58.142Z,27.13
2019-01-28T02:41:26.566Z,18.90
2019-01-28T02:43:54.806Z,20.77
2019-01-28T02:46:23.269Z,15.27
2019-01-28T02:48:51.624Z,17.97
2019-01-28T02:51:19.961Z,18.73
2019-01-28T02:53:48.366Z,16.60
2019-01-28T02:56:16.786Z,16.00
2019-01-28T02:58:45.160Z,20.20
2019-01-28T03:01:13.548Z,18.23
2019-01-28T03:03:41.845Z,19.10
2019-01-28T03:06:10.293Z,21.40
2019-01-28T03:08:38.677Z,19.57
2019-01-28T03:11:07.005Z,17.23
2019-01-28T03:13:35.691Z,19.47
2019-01-28T03:16:04.155Z,14.77
2019-01-28T03:18:32.479Z,13.10
2019-01-28T03:21:00.867Z,10.17
2019-01-28T03:23:29.227Z,15.97
2019-01-28T03:25:57.561Z,12.73
2019-01-28T03:28:26.099Z,8.50
2019-01-28T03:30:54.486Z,10.97
2019-01-28T03:33:22.907Z,12.53
2019-01-28T03:35:51.378Z,11.30
2019-01-28T03:38:19.779Z,9.30
2019-01-28T03:40:48.708Z,8.97
2019-01-28T03:43:17.200Z,12.30
2019-01-28T03:45:45.566Z,12.27
2019-01-28T03:48:13.950Z,13.90
2019-01-28T03:50:42.363Z,10.97
2019-01-28T03:53:10.796Z,13.40
2019-01-28T03:55:39.239Z,12.00
2019-01-28T03:58:07.576Z,8.57
2019-01-28T04:00:35.970Z,9.97
2019-01-28T04:03:04.518Z,12.43
2019-01-28T04:05:32.888Z,8.80
2019-01-28T04:08:01.212Z,6.03
2019-01-28T04:10:29.645Z,6.80
2019-01-28T04:12:58.014Z,7.90
2019-01-28T04:15:26.463Z,11.37
2019-01-28T04:17:54.842Z,9.83
2019-01-28T04:20:24.231Z,11.57
2019-01-28T04:22:52.753Z,10.90
2019-01-28T04:25:21.441Z,11.43
2019-01-28T04:27:49.772Z,10.60
2019-01-28T04:30:20.525Z,11.00
2019-01-28T04:32:48.837Z,11.83
2019-01-28T04:35:17.311Z,10.53
2019-01-28T04:37:45.823Z,12.40
2019-01-28T04:40:14.218Z,13.17
2019-01-28T04:42:42.652Z,15.50
2019-01-28T04:45:13.384Z,15.00
2019-01-28T04:47:41.725Z,10.33
2019-01-28T04:50:12.556Z,12.00
2019-01-28T04:52:40.885Z,13.43
2019-01-28T04:55:09.605Z,11.20
2019-01-28T04:57:38.003Z,10.30
2019-01-28T05:00:10.064Z,21.20
2019-01-28T05:02:38.477Z,12.67
2019-01-28T05:05:07.071Z,11.57
2019-01-28T05:07:35.464Z,13.47
2019-01-28T05:10:04.028Z,11.73
2019-01-28T05:12:32.360Z,17.47
2019-01-28T05:15:00.695Z,14.73
2019-01-28T05:17:29.357Z,13.83
2019-01-28T05:19:58.039Z,18.70
2019-01-28T05:22:26.449Z,19.77
2019-01-28T05:24:54.773Z,15.10
2019-01-28T05:27:23.064Z,18.90
2019-01-28T05:29:51.421Z,17.97
2019-01-28T05:32:20.076Z,21.40
2019-01-28T05:34:48.615Z,16.30
2019-01-28T05:37:17.041Z,19.80
2019-01-28T05:39:45.428Z,19.07
2019-01-28T05:42:13.955Z,23.33
2019-01-28T05:44:42.322Z,16.80
2019-01-28T05:47:10.678Z,19.73
2019-01-28T05:49:39.146Z,21.07
2019-01-28T05:52:07.514Z,19.97
2019-01-28T05:54:35.908Z,21.43
2019-01-28T05:57:04.340Z,22.67
2019-01-28T05:59:32.638Z,34.07
2019-01-28T06:02:00.956Z,24.97
2019-01-28T06:04:29.396Z,20.73
2019-01-28T06:06:57.832Z,21.10
2019-01-28T06:09:26.306Z,22.03
2019-01-28T06:11:54.893Z,23.37
2019-01-28T06:14:23.242Z,24.57
2019-01-28T06:16:51.688Z,23.80
2019-01-28T06:19:20.308Z,29.57
2019-01-28T06:21:49.112Z,20.13
2019-01-28T06:24:17.522Z,30.97
2019-01-28T06:26:45.877Z,29.50
2019-01-28T06:29:14.432Z,28.60
2019-01-28T06:31:42.940Z,26.53
2019-01-28T06:34:11.521Z,24.73
2019-01-28T06:36:40.815Z,22.27
2019-01-28T06:39:10.176Z,27.00
2019-01-28T06:41:38.826Z,27.73
2019-01-28T06:44:07.404Z,29.83
2019-01-28T06:46:35.869Z,24.37
2019-01-28T06:49:04.244Z,23.87
2019-01-28T06:51:32.622Z,36.40
2019-01-28T06:54:00.976Z,25.97
2019-01-28T06:56:29.305Z,29.07
2019-01-28T06:58:57.754Z,22.87
2019-01-28T07:01:26.065Z,27.40
2019-01-28T07:03:54.380Z,31.50
2019-01-28T07:06:22.784Z,28.37
2019-01-28T07:08:51.067Z,30.77
2019-01-28T07:11:19.375Z,23.57
2019-01-28T07:13:47.719Z,28.67
2019-01-28T07:16:16.021Z,27.83
2019-01-28T07:18:44.430Z,30.63
2019-01-28T07:21:12.858Z,25.97
2019-01-28T07:23:41.227Z,29.83
2019-01-28T07:26:09.584Z,26.97
2019-01-28T07:28:37.926Z,28.10
2019-01-28T07:31:06.354Z,24.20
2019-01-28T07:33:34.706Z,29.50
2019-01-28T07:36:03.570Z,31.27
2019-01-28T07:38:31.893Z,26.30
2019-01-28T07:41:00.235Z,26.07
2019-01-28T07:43:28.852Z,23.83
2019-01-28T07:45:57.191Z,28.20
2019-01-28T07:48:25.570Z,27.40
2019-01-28T07:50:54.007Z,29.17
2019-01-28T07:53:22.318Z,23.70
2019-01-28T07:55:50.727Z,29.67
2019-01-28T07:58:19.046Z,23.57
2019-01-28T08:00:47.589Z,28.07
2019-01-28T08:03:16.024Z,29.50
2019-01-28T08:05:44.353Z,36.33
2019-01-28T08:08:12.849Z,26.17
2019-01-28T08:10:41.180Z,27.80
2019-01-28T08:13:09.566Z,30.23
2019-01-28T08:15:38.069Z,30.60
2019-01-28T08:18:10.817Z,31.10
2019-01-28T08:20:34.903Z,26.33
2019-01-28T08:23:03.500Z,33.10
2019-01-28T08:25:31.877Z,30.10
2019-01-28T08:28:00.193Z,28.93
2019-01-28T08:30:33.594Z,35.40
2019-01-28T08:33:03.027Z,33.07
2019-01-28T08:35:31.234Z,36.20
2019-01-28T08:38:00.084Z,38.97
2019-01-28T08:40:28.575Z,40.93
2019-01-28T08:42:56.924Z,32.57
2019-01-28T08:45:25.279Z,42.33
2019-01-28T08:47:53.743Z,31.77
2019-01-28T08:50:22.866Z,38.47
2019-01-28T08:52:51.413Z,37.77
2019-01-28T08:55:21.022Z,41.80
2019-01-28T08:57:49.548Z,37.97
2019-01-28T09:00:20.239Z,46.50
2019-01-28T09:02:48.875Z,36.80
2019-01-28T09:05:17.603Z,33.17
2019-01-28T09:07:45.976Z,36.83
2019-01-28T09:10:14.926Z,35.10
2019-01-28T09:12:43.926Z,31.20
2019-01-28T09:15:14.097Z,31.23
2019-01-28T09:17:42.458Z,38.67
2019-01-28T09:20:14.460Z,35.33
2019-01-28T09:22:43.012Z,35.53
2019-01-28T09:25:11.691Z,32.90
2019-01-28T09:27:40.079Z,37.13
2019-01-28T09:30:10.900Z,34.50
2019-01-28T09:32:39.241Z,40.97
2019-01-28T09:35:07.860Z,35.30
2019-01-28T09:37:36.238Z,40.13
2019-01-28T09:40:06.570Z,31.10
2019-01-28T09:42:34.939Z,33.33
2019-01-28T09:45:03.559Z,34.93
2019-01-28T09:47:31.890Z,36.03
2019-01-28T09:50:00.466Z,33.37
2019-01-28T09:52:28.852Z,36.27
2019-01-28T09:54:57.154Z,39.20
2019-01-28T09:57:25.646Z,35.83
2019-01-28T09:59:54.044Z,40.53
2019-01-28T10:02:23.683Z,33.17
2019-01-28T10:04:50.972Z,32.23
2019-01-28T10:07:19.350Z,42.17
2019-01-28T10:09:47.733Z,27.53
2019-01-28T10:12:16.259Z,30.77
2019-01-28T10:14:44.568Z,28.57
2019-01-28T10:17:12.940Z,33.97
2019-01-28T10:19:41.309Z,33.03
2019-01-28T10:22:09.701Z,30.63
2019-01-28T10:24:38.011Z,33.90
2019-01-28T10:27:06.389Z,36.20
2019-01-28T10:29:34.718Z,31.47
2019-01-28T10:32:03.094Z,27.67
2019-01-28T10:34:31.465Z,28.10
2019-01-28T10:36:59.801Z,28.70
2019-01-28T10:39:28.138Z,32.23
2019-01-28T10:41:56.921Z,26.50
2019-01-28T10:44:25.299Z,28.07
2019-01-28T10:46:53.714Z,30.23
2019-01-28T10:49:22.368Z,28.63
2019-01-28T10:51:50.693Z,32.17
2019-01-28T10:54:19.033Z,31.87
2019-01-28T10:56:47.690Z,35.83
2019-01-28T10:59:16.153Z,30.87
2019-01-28T11:01:44.612Z,28.57
2019-01-28T11:04:12.936Z,33.50
2019-01-28T11:06:41.262Z,33.57
2019-01-28T11:09:09.581Z,30.00
2019-01-28T11:11:37.925Z,31.47
2019-01-28T11:14:06.444Z,28.20
2019-01-28T11:16:34.947Z,33.30
2019-01-28T11:19:03.556Z,36.70
2019-01-28T11:21:31.861Z,30.40
2019-01-28T11:24:00.217Z,34.23
2019-01-28T11:26:28.686Z,31.93
2019-01-28T11:28:57.015Z,32.10
2019-01-28T11:31:25.496Z,33.80
2019-01-28T11:33:53.826Z,33.00
2019-01-28T11:36:22.308Z,34.50
2019-01-28T11:38:50.627Z,30.53
2019-01-28T11:41:19.133Z,34.50
2019-01-28T11:43:47.623Z,42.07
2019-01-28T11:46:16.020Z,32.00
2019-01-28T11:48:44.257Z,35.83
2019-01-28T11:51:12.624Z,35.87
2019-01-28T11:53:40.958Z,31.23
2019-01-28T11:56:09.316Z,38.27
2019-01-28T11:58:37.690Z,45.53
2019-01-28T12:01:18.528Z,43.80
2019-01-28T12:03:46.955Z,34.10
2019-01-28T12:06:15.275Z,31.07
2019-01-28T12:08:43.588Z,37.37
2019-01-28T12:11:11.979Z,39.83
2019-01-28T12:13:40.414Z,36.73
2019-01-28T12:16:08.742Z,43.10
2019-01-28T12:18:37.188Z,32.40
2019-01-28T12:21:05.660Z,40.60
2019-01-28T12:23:34.703Z,30.07
2019-01-28T12:26:02.593Z,39.30
2019-01-28T12:28:30.975Z,38.80
2019-01-28T12:30:59.292Z,42.80
2019-01-28T12:33:27.665Z,34.77
2019-01-28T12:35:56.030Z,37.10
2019-01-28T12:38:24.363Z,34.50
2019-01-28T12:40:52.689Z,36.30
2019-01-28T12:43:21.252Z,36.37
2019-01-28T12:45:50.238Z,32.80
2019-01-28T12:48:18.571Z,40.90
2019-01-28T12:50:47.011Z,30.50
2019-01-28T12:53:15.332Z,40.60
2019-01-28T12:55:43.730Z,38.63
2019-01-28T12:58:12.091Z,38.13
2019-01-28T13:00:42.351Z,40.17
2019-01-28T13:03:11.429Z,39.50
2019-01-28T13:05:40.053Z,42.90
2019-01-28T13:08:08.426Z,40.30
2019-01-28T13:10:36.812Z,40.67
2019-01-28T13:13:05.214Z,38.97
2019-01-28T13:15:33.701Z,37.37
2019-01-28T13:18:02.088Z,41.10
2019-01-28T13:20:30.599Z,47.70
2019-01-28T13:22:58.914Z,41.87
2019-01-28T13:25:27.803Z,41.53
2019-01-28T13:27:56.174Z,44.70
2019-01-28T13:30:26.873Z,43.60
2019-01-28T13:32:55.887Z,49.40
2019-01-28T13:35:24.253Z,43.17
2019-01-28T13:37:52.630Z,44.13
2019-01-28T13:40:21.037Z,38.37
2019-01-28T13:42:49.442Z,40.50
2019-01-28T13:45:18.684Z,39.13
2019-01-28T13:47:47.360Z,44.20
2019-01-28T13:50:18.275Z,44.57
2019-01-28T13:52:46.801Z,43.17
2019-01-28T13:55:15.312Z,55.47
2019-01-28T13:57:43.614Z,44.87
2019-01-28T14:00:17.245Z,49.83
2019-01-28T14:02:45.674Z,50.13
2019-01-28T14:05:14.237Z,48.93
2019-01-28T14:07:42.676Z,51.53
2019-01-28T14:10:11.944Z,43.83
2019-01-28T14:12:40.325Z,45.80
2019-01-28T14:15:12.396Z,52.77
2019-01-28T14:17:40.751Z,50.27
2019-01-28T14:20:12.196Z,48.70
2019-01-28T14:22:40.617Z,53.63
2019-01-28T14:25:10.324Z,46.37
2019-01-28T14:27:38.802Z,46.57
2019-01-28T14:30:09.750Z,45.80
2019-01-28T14:32:38.097Z,51.97
2019-01-28T14:35:06.673Z,47.40
2019-01-28T14:37:35.152Z,51.17
2019-01-28T14:40:03.873Z,37.67
2019-01-28T14:42:32.337Z,44.43
2019-01-28T14:45:00.729Z,39.77
2019-01-28T14:47:29.312Z,40.67
2019-01-28T14:49:57.842Z,40.03
2019-01-28T14:52:26.183Z,42.33
2019-01-28T14:54:56.329Z,41.10
2019-01-28T14:57:23.133Z,41.73
2019-01-28T14:59:51.777Z,45.50
2019-01-28T15:02:20.422Z,51.00
2019-01-28T15:04:48.723Z,43.37
2019-01-28T15:07:17.040Z,40.80
2019-01-28T15:09:45.426Z,51.70
2019-01-28T15:12:13.967Z,43.27
2019-01-28T15:14:42.323Z,44.80
2019-01-28T15:17:10.762Z,45.10
2019-01-28T15:19:39.271Z,40.27
2019-01-28T15:22:07.720Z,45.23
2019-01-28T15:24:36.082Z,40.73
2019-01-28T15:27:04.461Z,46.77
2019-01-28T15:29:32.956Z,43.37
2019-01-28T15:32:01.282Z,49.07
2019-01-28T15:34:29.611Z,52.00
2019-01-28T15:36:58.398Z,47.73
2019-01-28T15:39:27.804Z,45.37
2019-01-28T15:41:56.173Z,49.07
2019-01-28T15:44:24.587Z,42.07
2019-01-28T15:46:53.135Z,50.77
2019-01-28T15:49:21.548Z,40.73
2019-01-28T15:51:50.201Z,50.07
2019-01-28T15:54:18.530Z,49.93
2019-01-28T15:56:46.950Z,45.97
2019-01-28T15:59:15.331Z,48.37
2019-01-28T16:01:43.660Z,54.93
2019-01-28T16:04:12.083Z,53.93
2019-01-28T16:06:40.444Z,53.30
2019-01-28T16:09:09.609Z,47.20
2019-01-28T16:11:38.039Z,57.43
2019-01-28T16:14:06.386Z,57.47
2019-01-28T16:16:34.928Z,58.40
2019-01-28T16:19:03.293Z,62.67
2019-01-28T16:21:31.650Z,58.73
2019-01-28T16:23:59.997Z,60.60
2019-01-28T16:26:28.374Z,61.37
2019-01-28T16:28:56.710Z,60.00
2019-01-28T16:31:25.155Z,68.30
2019-01-28T16:33:53.739Z,58.90
2019-01-28T16:36:22.064Z,63.93
2019-01-28T16:38:50.602Z,64.97
2019-01-28T16:41:18.981Z,63.73
2019-01-28T16:43:47.326Z,69.07
2019-01-28T16:46:16.047Z,63.00
2019-01-28T16:48:44.386Z,68.30
2019-01-28T16:51:13.040Z,73.17
2019-01-28T16:53:41.496Z,69.50
2019-01-28T16:56:09.821Z,79.70
2019-01-28T16:58:38.230Z,74.80
2019-01-28T17:01:06.649Z,68.63
2019-01-28T17:03:34.994Z,77.43
2019-01-28T17:06:03.375Z,67.80
2019-01-28T17:08:31.736Z,90.60
2019-01-28T17:11:00.048Z,75.43
2019-01-28T17:13:28.386Z,86.43
2019-01-28T17:15:56.878Z,85.67
2019-01-28T17:18:25.207Z,82.63
2019-01-28T17:20:53.550Z,83.60
2019-01-28T17:23:21.956Z,78.37
2019-01-28T17:25:50.270Z,81.30
2019-01-28T17:28:18.620Z,77.70
2019-01-28T17:30:49.116Z,87.73
2019-01-28T17:33:17.611Z,85.13
2019-01-28T17:35:45.920Z,75.70
2019-01-28T17:38:14.300Z,85.10
2019-01-28T17:40:43.616Z,82.87
2019-01-28T17:43:13.064Z,95.53
2019-01-28T17:45:41.508Z,87.60
2019-01-28T17:48:10.050Z,100.33
2019-01-28T17:50:43.408Z,89.37
2019-01-28T17:53:06.815Z,85.57
2019-01-28T17:55:35.631Z,104.03
2019-01-28T17:58:04.315Z,84.67
2019-01-28T18:00:36.602Z,106.47
2019-01-28T18:03:05.044Z,101.47
2019-01-28T18:05:33.446Z,110.23
2019-01-28T18:08:01.752Z,130.00
2019-01-28T18:10:30.342Z,105.23
2019-01-28T18:12:58.722Z,118.57
2019-01-28T18:15:27.189Z,109.17
2019-01-28T18:17:55.594Z,96.13
2019-01-28T18:20:24.177Z,108.03
2019-01-28T18:22:52.541Z,86.93
2019-01-28T18:25:23.082Z,91.87
2019-01-28T18:27:51.386Z,95.40
2019-01-28T18:30:25.332Z,90.27
2019-01-28T18:32:53.630Z,93.27
2019-01-28T18:35:22.166Z,97.73
2019-01-28T18:37:50.609Z,89.63
2019-01-28T18:40:19.123Z,82.30
2019-01-28T18:42:47.570Z,80.10
2019-01-28T18:45:18.260Z,76.47
2019-01-28T18:47:44.407Z,87.63
2019-01-28T18:50:14.535Z,75.50
2019-01-28T18:52:42.962Z,74.57
2019-01-28T18:55:11.402Z,83.80
2019-01-28T18:57:39.888Z,102.67
2019-01-28T19:00:13.934Z,90.40
2019-01-28T19:02:42.271Z,100.30
2019-01-28T19:05:11.603Z,97.70
2019-01-28T19:07:44.386Z,92.23
2019-01-28T19:10:23.819Z,101.20
2019-01-28T19:13:03.467Z,92.77
2019-01-28T19:16:08.165Z,89.70
2019-01-28T19:18:40.851Z,95.57
2019-01-28T19:21:16.082Z,87.43
2019-01-28T19:23:44.579Z,84.23
2019-01-28T19:26:12.955Z,94.07
2019-01-28T19:28:41.346Z,90.90
2019-01-28T19:31:09.745Z,81.13
2019-01-28T19:33:38.094Z,81.60
2019-01-28T19:36:06.794Z,74.83
2019-01-28T19:38:35.195Z,83.27
2019-01-28T19:41:03.552Z,91.97
2019-01-28T19:43:31.885Z,74.30
2019-01-28T19:46:00.321Z,72.00
2019-01-28T19:48:28.736Z,66.63
2019-01-28T19:50:57.297Z,73.00
2019-01-28T19:53:25.892Z,73.07
2019-01-28T19:55:54.472Z,66.50
2019-01-28T19:58:22.836Z,69.83
2019-01-28T20:00:51.188Z,68.07
2019-01-28T20:03:19.555Z,60.40
2019-01-28T20:05:48.081Z,72.33
2019-01-28T20:08:16.614Z,76.00
2019-01-28T20:10:45.003Z,67.27
2019-01-28T20:13:13.376Z,64.80
2019-01-28T20:15:41.688Z,70.03
2019-01-28T20:18:10.126Z,69.43
2019-01-28T20:20:38.519Z,66.33
2019-01-28T20:23:06.860Z,62.97
2019-01-28T20:25:35.739Z,62.87
2019-01-28T20:28:03.717Z,65.40
2019-01-28T20:30:32.068Z,64.13
2019-01-28T20:33:00.571Z,70.27
2019-01-28T20:35:30.136Z,72.07
2019-01-28T20:37:57.459Z,78.30
2019-01-28T20:40:25.769Z,73.33
2019-01-28T20:42:54.142Z,70.17
2019-01-28T20:45:23.345Z,67.87
2019-01-28T20:47:51.921Z,81.27
2019-01-28T20:50:22.334Z,82.83
2019-01-28T20:52:50.789Z,72.23
2019-01-28T20:55:19.188Z,63.60
2019-01-28T20:57:47.657Z,71.83
2019-01-28T21:00:17.971Z,71.60
2019-01-28T21:02:46.444Z,69.27
2019-01-28T21:05:16.053Z,65.37
2019-01-28T21:07:44.743Z,75.00
2019-01-28T21:10:14.251Z,65.23
2019-01-28T21:12:42.750Z,63.83
2019-01-28T21:15:12.889Z,66.33
2019-01-28T21:17:41.328Z,68.07
2019-01-28T21:20:12.093Z,58.67
2019-01-28T21:22:40.490Z,59.90
2019-01-28T21:25:11.350Z,67.70
2019-01-28T21:27:39.638Z,52.53
2019-01-28T21:30:10.351Z,61.33
2019-01-28T21:32:38.733Z,49.70
2019-01-28T21:35:08.533Z,67.50
2019-01-28T21:37:44.135Z,64.00
2019-01-28T21:40:12.697Z,63.90
2019-01-28T21:42:41.001Z,72.27
2019-01-28T21:45:10.075Z,80.27
2019-01-28T21:47:38.444Z,70.47
2019-01-28T21:50:07.843Z,57.40
2019-01-28T21:52:36.233Z,62.10
2019-01-28T21:55:05.149Z,53.10
2019-01-28T21:57:33.494Z,59.20
2019-01-28T22:00:01.908Z,59.10
2019-01-28T22:02:30.203Z,52.97
2019-01-28T22:04:58.624Z,52.20
2019-01-28T22:07:26.940Z,49.27
2019-01-28T22:09:55.687Z,52.03
2019-01-28T22:12:24.097Z,51.83
2019-01-28T22:14:52.396Z,73.30
2019-01-28T22:17:20.703Z,67.20
2019-01-28T22:19:49.069Z,57.83
2019-01-28T22:22:17.399Z,54.20
2019-01-28T22:24:45.703Z,59.33
2019-01-28T22:27:14.069Z,66.47
2019-01-28T22:29:42.398Z,104.07
2019-01-28T22:32:10.773Z,79.73
2019-01-28T22:34:47.512Z,76.40
2019-01-28T22:37:07.551Z,86.43
2019-01-28T22:39:35.900Z,65.87
2019-01-28T22:42:04.437Z,99.93
2019-01-28T22:44:32.804Z,94.43
2019-01-28T22:47:01.150Z,88.10
2019-01-28T22:49:29.435Z,109.67
2019-01-28T22:51:57.754Z,110.03
2019-01-28T22:54:26.076Z,175.50
2019-01-28T22:56:54.406Z,104.00
2019-01-28T22:59:22.932Z,84.77
2019-01-28T23:01:51.299Z,117.47
2019-01-28T23:04:19.695Z,72.50
2019-01-28T23:06:48.020Z,78.10
2019-01-28T23:09:16.358Z,72.47
2019-01-28T23:11:44.792Z,97.33
2019-01-28T23:14:13.131Z,72.97
2019-01-28T23:16:41.524Z,70.60
2019-01-28T23:19:09.824Z,115.37
2019-01-28T23:21:38.891Z,60.73
2019-01-28T23:24:07.281Z,104.50
2019-01-28T23:26:35.700Z,85.13
2019-01-28T23:29:04.109Z,242.87
2019-01-28T23:31:32.471Z,162.30
2019-01-28T23:34:00.851Z,185.23
2019-01-28T23:36:29.189Z,174.97
2019-01-28T23:38:57.585Z,180.43
2019-01-28T23:41:26.083Z,156.63
2019-01-28T23:43:54.805Z,92.53
2019-01-28T23:46:23.152Z,95.33
2019-01-28T23:48:51.535Z,206.20
2019-01-28T23:51:20.038Z,149.80
2019-01-28T23:53:48.467Z,202.43
2019-01-28T23:56:16.841Z,224.73
2019-01-28T23:58:45.380Z,138.17
